Time;durP1;ratioP1;P1;durP2;ratioP2;P2;SDS_P1;SDS_P2;PMS_P1;PMS_P2;Temp;Humidity;BMP_temperature;BMP_pressure;BME280_temperature;BME280_humidity;BME280_pressure;Samples;Min_cycle;Max_cycle;Signal;HPM_P1;HPM_P2
2023/04/26 00:01:04;;;;;;;9.55;5.40;;;;;;;5.71;94.95;96185.38;5091349;28;20048;-72
2023/04/26 00:03:31;;;;;;;12.15;6.28;;;;;;;5.73;94.87;96193.97;5091657;28;20479;-72
2023/04/26 00:06:02;;;;;;;9.60;5.05;;;;;;;5.80;95.14;96199.03;5092969;28;20055;-72
2023/04/26 00:08:30;;;;;;;12.30;6.43;;;;;;;5.75;94.74;96199.09;5084522;28;20043;-72
2023/04/26 00:10:56;;;;;;;9.20;5.47;;;;;;;5.70;94.86;96201.88;5091458;28;20048;-72
2023/04/26 00:13:23;;;;;;;10.15;5.30;;;;;;;5.75;94.76;96196.41;5091266;28;20048;-72
2023/04/26 00:15:49;;;;;;;11.20;5.53;;;;;;;5.82;94.37;96196.84;5091783;28;20375;-72
2023/04/26 00:18:16;;;;;;;9.75;5.68;;;;;;;5.83;93.35;96187.63;5090014;28;20044;-72
2023/04/26 00:20:42;;;;;;;9.57;5.20;;;;;;;5.86;92.88;96192.47;5091772;28;20044;-72
2023/04/26 00:23:09;;;;;;;26.60;7.88;;;;;;;5.81;92.62;96192.53;5089716;28;20109;-73
2023/04/26 00:25:37;;;;;;;21.95;6.65;;;;;;;5.72;92.35;96186.16;5091822;28;20048;-73
2023/04/26 00:28:04;;;;;;;27.85;7.95;;;;;;;5.66;92.46;96185.44;5090699;28;20049;-73
2023/04/26 00:30:31;;;;;;;24.02;6.85;;;;;;;5.71;92.20;96184.56;5091656;28;20044;-73
2023/04/26 00:32:57;;;;;;;22.85;6.78;;;;;;;5.73;92.21;96187.78;5091369;28;20127;-73
2023/04/26 00:35:24;;;;;;;11.77;6.57;;;;;;;5.55;92.06;96188.56;5090932;28;20044;-73
2023/04/26 00:37:51;;;;;;;25.10;6.90;;;;;;;5.60;92.48;96188.50;5090318;28;20040;-73
2023/04/26 00:40:19;;;;;;;25.33;6.93;;;;;;;5.58;92.24;96186.06;5090637;28;20051;-73
2023/04/26 00:42:47;;;;;;;27.45;7.25;;;;;;;5.57;92.54;96189.06;5091226;28;20529;-72
2023/04/26 00:45:13;;;;;;;9.77;6.13;;;;;;;5.62;92.68;96186.31;5090820;28;20048;-72
2023/04/26 00:47:40;;;;;;;48.47;9.85;;;;;;;5.44;93.53;96191.38;5091366;28;20055;-73
2023/04/26 00:50:09;;;;;;;56.83;9.90;;;;;;;5.57;93.39;96183.66;5085380;28;20265;-74
2023/04/26 00:52:36;;;;;;;18.20;6.15;;;;;;;5.61;93.25;96179.28;5086643;28;20036;-73
2023/04/26 00:55:02;;;;;;;21.20;7.03;;;;;;;5.61;93.49;96184.69;5089966;28;20047;-73
2023/04/26 00:57:29;;;;;;;24.90;7.45;;;;;;;5.58;93.68;96185.25;5090413;28;20074;-73
2023/04/26 00:59:57;;;;;;;12.48;6.68;;;;;;;5.40;94.09;96186.84;5085573;27;20040;-72
2023/04/26 01:02:23;;;;;;;12.73;6.38;;;;;;;5.28;95.71;96192.66;5090816;28;20040;-73
2023/04/26 01:04:50;;;;;;;11.63;6.80;;;;;;;5.02;97.53;96188.66;5091113;28;20446;-72
2023/04/26 01:07:17;;;;;;;13.80;7.93;;;;;;;4.92;98.68;96200.34;5090477;28;20044;-73
2023/04/26 01:09:44;;;;;;;14.00;7.80;;;;;;;4.87;99.40;96193.09;5089652;28;20048;-73
2023/04/26 01:12:11;;;;;;;15.20;7.80;;;;;;;4.83;100.00;96192.06;5089967;28;20609;-73
2023/04/26 01:14:39;;;;;;;12.85;7.47;;;;;;;4.87;100.00;96193.09;5090671;28;20563;-73
2023/04/26 01:17:08;;;;;;;15.45;8.27;;;;;;;4.76;100.00;96197.00;5090064;28;20043;-72
2023/04/26 01:19:36;;;;;;;14.73;8.10;;;;;;;4.72;100.00;96187.84;5089311;27;20068;-73
2023/04/26 01:22:02;;;;;;;14.10;7.88;;;;;;;4.84;100.00;96188.25;5089035;28;20513;-72
2023/04/26 01:24:32;;;;;;;16.63;8.75;;;;;;;4.95;100.00;96188.97;5082899;28;20048;-73
2023/04/26 01:26:59;;;;;;;14.85;8.55;;;;;;;5.07;100.00;96196.69;5091987;28;20048;-72
2023/04/26 01:29:26;;;;;;;20.63;8.80;;;;;;;5.18;100.00;96193.59;5088428;27;20048;-72
2023/04/26 01:31:52;;;;;;;24.33;9.15;;;;;;;5.18;100.00;96198.97;5089768;28;20522;-72
2023/04/26 01:34:19;;;;;;;30.83;9.48;;;;;;;5.29;100.00;96204.28;5089519;28;20059;-72
2023/04/26 01:36:45;;;;;;;14.43;8.60;;;;;;;5.23;100.00;96200.81;5090351;28;20070;-73
2023/04/26 01:39:12;;;;;;;14.73;8.80;;;;;;;5.20;100.00;96204.09;5088371;27;20052;-72
2023/04/26 01:41:40;;;;;;;14.25;8.75;;;;;;;5.30;100.00;96206.66;5089889;28;20109;-73
2023/04/26 01:44:06;;;;;;;16.35;8.98;;;;;;;5.30;100.00;96205.88;5089645;28;20573;-72
2023/04/26 01:46:33;;;;;;;16.55;9.52;;;;;;;5.05;100.00;96202.34;5089616;28;20055;-72
2023/04/26 01:48:59;;;;;;;15.60;8.80;;;;;;;4.82;100.00;96201.25;5089221;28;20047;-72
2023/04/26 01:51:26;;;;;;;17.55;9.18;;;;;;;4.75;100.00;96200.78;5088652;28;20503;-72
2023/04/26 01:53:52;;;;;;;16.83;9.35;;;;;;;4.89;100.00;96201.69;5089827;28;20051;-73
2023/04/26 01:56:19;;;;;;;20.23;9.40;;;;;;;4.73;100.00;96205.63;5089558;28;20048;-72
2023/04/26 01:58:47;;;;;;;16.27;8.95;;;;;;;4.75;100.00;96211.56;5087342;27;20040;-72
2023/04/26 02:01:13;;;;;;;15.93;9.38;;;;;;;4.69;100.00;96210.78;5089054;28;20067;-72
2023/04/26 02:03:40;;;;;;;15.55;8.43;;;;;;;4.71;100.00;96199.75;5089074;28;20044;-72
2023/04/26 02:06:06;;;;;;;14.52;8.95;;;;;;;4.70;100.00;96200.84;5089223;28;20109;-72
2023/04/26 02:08:33;;;;;;;20.23;8.55;;;;;;;4.73;100.00;96202.94;5089073;28;20040;-72
2023/04/26 02:11:00;;;;;;;18.52;9.20;;;;;;;4.66;100.00;96200.59;5089801;28;20055;-73
2023/04/26 02:13:27;;;;;;;28.58;9.32;;;;;;;4.70;100.00;96203.53;5089023;28;20052;-73
2023/04/26 02:15:55;;;;;;;31.50;10.18;;;;;;;4.78;100.00;96204.78;5089160;28;20109;-72
2023/04/26 02:18:21;;;;;;;32.95;10.85;;;;;;;4.79;100.00;96201.00;5088176;28;20145;-73
2023/04/26 02:20:48;;;;;;;30.05;10.25;;;;;;;4.83;100.00;96207.44;5089199;28;20048;-73
2023/04/26 02:23:15;;;;;;;30.85;11.02;;;;;;;4.80;100.00;96208.81;5088835;28;20545;-73
2023/04/26 02:25:41;;;;;;;28.05;10.73;;;;;;;4.82;100.00;96206.63;5089737;28;20048;-73
2023/04/26 02:28:08;;;;;;;30.58;11.57;;;;;;;4.83;100.00;96202.84;5088262;28;20048;-72
2023/04/26 02:30:34;;;;;;;25.15;10.20;;;;;;;4.72;100.00;96207.53;5089788;28;20051;-73
2023/04/26 02:33:02;;;;;;;18.42;9.95;;;;;;;4.71;100.00;96207.84;5089686;28;20044;-73
2023/04/26 02:35:29;;;;;;;34.78;10.68;;;;;;;4.73;100.00;96202.94;5089342;28;20102;-72
2023/04/26 02:37:55;;;;;;;19.02;10.60;;;;;;;4.74;100.00;96209.94;5087847;27;20055;-73
2023/04/26 02:40:22;;;;;;;20.45;10.85;;;;;;;4.72;100.00;96198.66;5088939;28;20060;-73
2023/04/26 02:42:49;;;;;;;21.30;11.02;;;;;;;4.77;100.00;96201.28;5091900;28;20059;-73
2023/04/26 02:45:15;;;;;;;23.05;11.52;;;;;;;4.87;100.00;96208.50;5091946;28;20044;-73
2023/04/26 02:47:42;;;;;;;22.25;12.13;;;;;;;4.71;100.00;96205.94;5092791;28;20565;-73
2023/04/26 02:50:10;;;;;;;20.95;12.25;;;;;;;4.80;100.00;96216.91;5092941;28;20059;-73
2023/04/26 02:52:37;;;;;;;22.23;11.00;;;;;;;4.89;100.00;96199.00;5091631;28;20055;-72
2023/04/26 02:55:04;;;;;;;22.83;11.43;;;;;;;5.06;100.00;96211.25;5092639;28;20048;-72
2023/04/26 02:57:30;;;;;;;20.38;11.70;;;;;;;5.08;100.00;96199.09;5090861;27;20531;-73
2023/04/26 02:59:57;;;;;;;21.15;12.23;;;;;;;4.95;100.00;96197.84;5093275;28;20052;-72
2023/04/26 03:02:24;;;;;;;30.98;12.68;;;;;;;4.72;100.00;96196.75;5092580;28;20544;-72
2023/04/26 03:04:50;;;;;;;22.65;11.80;;;;;;;4.87;100.00;96198.50;5092914;28;20048;-73
2023/04/26 03:07:18;;;;;;;26.88;13.98;;;;;;;4.75;100.00;96200.78;5090333;27;20044;-72
2023/04/26 03:09:44;;;;;;;27.90;13.23;;;;;;;4.76;100.00;96197.00;5092995;28;20048;-72
2023/04/26 03:12:12;;;;;;;24.48;13.00;;;;;;;4.89;100.00;96206.31;5090753;27;20044;-72
2023/04/26 03:14:39;;;;;;;23.83;12.68;;;;;;;5.04;100.00;96205.34;5093006;28;20452;-72
2023/04/26 03:17:05;;;;;;;26.98;13.02;;;;;;;4.86;100.00;96207.69;5091844;28;20083;-72
2023/04/26 03:19:31;;;;;;;25.75;13.10;;;;;;;4.86;100.00;96205.00;5092760;28;20036;-72
2023/04/26 03:21:58;;;;;;;31.33;13.77;;;;;;;4.88;100.00;96200.09;5092695;28;20044;-72
2023/04/26 03:24:26;;;;;;;25.80;12.80;;;;;;;4.96;100.00;96210.28;5090949;27;20043;-73
2023/04/26 03:26:52;;;;;;;25.92;13.68;;;;;;;4.93;100.00;96204.66;5092744;28;20044;-73
2023/04/26 03:29:18;;;;;;;26.58;13.32;;;;;;;4.95;100.00;96211.34;5092237;28;20098;-72
2023/04/26 03:31:45;;;;;;;26.20;14.07;;;;;;;5.09;100.00;96208.00;5092181;28;20101;-72
2023/04/26 03:34:11;;;;;;;23.27;12.93;;;;;;;5.21;100.00;96213.78;5090100;27;20047;-72
2023/04/26 03:36:38;;;;;;;25.98;13.55;;;;;;;5.05;100.00;96217.75;5092651;28;20044;-72
2023/04/26 03:39:05;;;;;;;26.23;14.02;;;;;;;4.95;100.00;96221.34;5091426;28;20042;-72
2023/04/26 03:41:34;;;;;;;23.90;13.07;;;;;;;5.11;100.00;96219.28;5092370;28;20070;-73
2023/04/26 03:44:01;;;;;;;26.17;13.48;;;;;;;5.17;100.00;96216.28;5092363;28;20054;-72
2023/04/26 03:46:27;;;;;;;24.52;13.73;;;;;;;5.12;100.00;96220.94;5091992;28;20051;-72
2023/04/26 03:48:54;;;;;;;26.13;13.27;;;;;;;5.13;100.00;96222.53;5092366;28;20044;-72
2023/04/26 03:51:20;;;;;;;27.45;14.43;;;;;;;5.02;100.00;96221.84;5091903;28;20388;-72
2023/04/26 03:53:47;;;;;;;26.00;14.27;;;;;;;5.01;100.00;96214.00;5090000;28;20068;-71
2023/04/26 03:56:14;;;;;;;28.38;13.60;;;;;;;5.02;100.00;96215.63;5091444;28;20044;-72
2023/04/26 03:58:42;;;;;;;25.95;14.07;;;;;;;4.96;100.00;96218.38;5092783;28;20415;-74
2023/04/26 04:01:08;;;;;;;28.42;13.95;;;;;;;5.01;100.00;96225.59;5090651;28;20103;-73
2023/04/26 04:03:35;;;;;;;25.23;12.93;;;;;;;5.17;100.00;96228.97;5091483;28;20124;-73
2023/04/26 04:06:01;;;;;;;28.80;14.23;;;;;;;5.24;100.00;96230.22;5094144;28;20118;-72
2023/04/26 04:08:28;;;;;;;25.13;13.07;;;;;;;5.20;100.00;96223.78;5092201;28;20097;-72
2023/04/26 04:10:55;;;;;;;27.55;13.77;;;;;;;5.17;100.00;96229.78;5092930;28;20055;-72
2023/04/26 04:13:21;;;;;;;26.10;13.10;;;;;;;5.06;100.00;96227.44;5089566;28;20052;-72
2023/04/26 04:15:49;;;;;;;25.67;13.18;;;;;;;4.96;100.00;96233.78;5092061;28;20048;-72
2023/04/26 04:18:16;;;;;;;28.02;13.40;;;;;;;5.04;100.00;96233.13;5091151;28;20048;-74
2023/04/26 04:20:42;;;;;;;21.98;11.75;;;;;;;5.21;100.00;96240.78;5092129;28;20052;-72
2023/04/26 04:23:09;;;;;;;24.35;12.68;;;;;;;5.24;100.00;96232.13;5089721;27;20055;-72
2023/04/26 04:25:36;;;;;;;23.70;12.20;;;;;;;5.15;100.00;96234.63;5091437;28;20050;-72
2023/04/26 04:28:03;;;;;;;24.52;11.82;;;;;;;5.33;100.00;96238.50;5091949;28;20047;-73
2023/04/26 04:30:29;;;;;;;27.23;13.23;;;;;;;5.19;100.00;96238.38;5091108;28;20044;-72
2023/04/26 04:32:58;;;;;;;28.30;12.93;;;;;;;5.16;100.00;96232.72;5090643;28;20043;-75
2023/04/26 04:35:27;;;;;;;22.58;12.00;;;;;;;5.23;100.00;96244.81;5091132;28;20146;-72
2023/04/26 04:37:55;;;;;;;23.38;12.50;;;;;;;5.24;100.00;96248.31;5090129;27;20067;-72
2023/04/26 04:40:22;;;;;;;26.50;14.18;;;;;;;5.21;100.00;96262.38;5091386;28;20048;-72
2023/04/26 04:42:48;;;;;;;25.25;13.05;;;;;;;5.23;100.00;96254.81;5090017;28;20052;-72
2023/04/26 04:45:16;;;;;;;23.55;12.02;;;;;;;5.23;100.00;96254.81;5091425;28;20044;-72
2023/04/26 04:47:44;;;;;;;25.67;12.25;;;;;;;4.96;100.00;96253.47;5091862;28;20052;-72
2023/04/26 04:50:11;;;;;;;19.13;11.52;;;;;;;5.02;100.00;96256.13;5090964;28;20056;-72
2023/04/26 04:52:38;;;;;;;22.83;10.88;;;;;;;5.19;100.00;96259.97;5089326;28;20383;-73
2023/04/26 04:55:05;;;;;;;20.92;11.18;;;;;;;4.95;100.00;96259.13;5090570;28;20044;-73
2023/04/26 04:57:32;;;;;;;22.10;12.23;;;;;;;4.97;100.00;96256.97;5090018;28;20055;-73
2023/04/26 05:00:04;;;;;;;20.23;10.57;;;;;;;5.16;100.00;96263.22;5090900;28;20474;-72
2023/04/26 05:02:31;;;;;;;19.35;11.27;;;;;;;5.28;100.00;96265.56;5089274;28;20068;-72
2023/04/26 05:04:57;;;;;;;17.95;10.20;;;;;;;5.21;100.00;96267.78;5090002;28;20495;-71
2023/04/26 05:07:25;;;;;;;17.65;10.15;;;;;;;5.34;100.00;96269.81;5089657;28;20097;-72
2023/04/26 05:09:51;;;;;;;20.00;10.45;;;;;;;5.40;100.00;96271.38;5091095;27;20052;-72
2023/04/26 05:12:18;;;;;;;20.65;11.40;;;;;;;5.34;100.00;96283.31;5089892;28;20051;-72
2023/04/26 05:14:44;;;;;;;21.20;10.88;;;;;;;5.28;100.00;96278.25;5093082;28;20048;-75
2023/04/26 05:17:11;;;;;;;21.48;11.23;;;;;;;5.10;100.00;96282.47;5091173;28;20048;-77
2023/04/26 05:19:37;;;;;;;24.00;11.43;;;;;;;5.10;100.00;96282.47;5091249;28;20048;-72
2023/04/26 05:25:15;;;;;;;20.52;10.95;;;;;;;5.45;100.00;96289.41;5075322;28;20040;-72
2023/04/26 05:27:44;;;;;;;15.07;9.30;;;;;;;5.58;100.00;96299.50;5091176;28;20074;-72
2023/04/26 05:30:11;;;;;;;16.98;10.60;;;;;;;5.26;100.00;96291.22;5089964;28;20052;-72
2023/04/26 05:32:38;;;;;;;18.58;10.35;;;;;;;5.19;100.00;96295.06;5089067;28;20097;-72
2023/04/26 05:35:05;;;;;;;19.77;10.45;;;;;;;5.42;100.00;96293.47;5090167;28;20048;-72
2023/04/26 05:37:31;;;;;;;16.70;10.55;;;;;;;5.57;100.00;96295.22;5090497;28;20517;-72
2023/04/26 05:39:58;;;;;;;20.70;10.60;;;;;;;5.53;100.00;96301.47;5090356;28;20044;-72
2023/04/26 05:42:26;;;;;;;18.48;9.57;;;;;;;5.54;100.00;96297.69;5088514;28;20055;-72
2023/04/26 05:44:57;;;;;;;20.90;10.77;;;;;;;5.47;99.30;96304.22;5089959;27;20052;-72
2023/04/26 05:47:23;;;;;;;18.40;10.25;;;;;;;5.23;100.00;96309.59;5090821;28;20048;-73
2023/04/26 05:49:49;;;;;;;16.83;9.30;;;;;;;5.25;100.00;96312.03;5093171;28;20048;-72
2023/04/26 05:52:16;;;;;;;18.08;9.77;;;;;;;5.29;100.00;96307.66;5088992;28;20519;-73
2023/04/26 05:54:42;;;;;;;15.95;9.05;;;;;;;5.37;100.00;96306.22;5089399;27;20048;-73
2023/04/26 05:57:09;;;;;;;18.60;9.30;;;;;;;5.44;100.00;96312.91;5089889;28;20051;-72
2023/04/26 05:59:37;;;;;;;14.38;9.65;;;;;;;5.42;99.89;96316.97;5088978;27;20479;-72
2023/04/26 06:02:07;;;;;;;18.23;9.55;;;;;;;5.63;99.68;96312.16;5089865;28;20441;-72
2023/04/26 06:04:33;;;;;;;17.95;9.77;;;;;;;5.61;98.24;96319.75;5088860;28;20127;-74
2023/04/26 06:07:00;;;;;;;16.23;8.85;;;;;;;5.68;97.53;96317.50;5091684;28;20043;-73
2023/04/26 06:09:27;;;;;;;15.65;9.30;;;;;;;5.82;97.80;96321.13;5089390;28;20040;-73
2023/04/26 06:11:53;;;;;;;18.30;9.85;;;;;;;5.93;96.74;96322.66;5088639;28;20490;-72
2023/04/26 06:14:19;;;;;;;17.60;9.35;;;;;;;5.84;94.81;96329.75;5092630;27;20106;-73
2023/04/26 06:16:47;;;;;;;17.17;9.13;;;;;;;5.80;95.81;96327.94;5092660;28;20040;-72
2023/04/26 06:19:14;;;;;;;15.65;8.93;;;;;;;5.79;96.67;96337.13;5091058;28;20044;-73
2023/04/26 06:21:40;;;;;;;15.15;8.93;;;;;;;5.86;96.13;96337.59;5090728;28;20047;-72
2023/04/26 06:24:07;;;;;;;15.00;9.27;;;;;;;5.72;95.53;96337.47;5085595;28;20098;-75
2023/04/26 06:26:34;;;;;;;18.23;10.40;;;;;;;5.64;96.59;96338.09;5089071;28;20055;-72
2023/04/26 06:29:00;;;;;;;17.58;10.13;;;;;;;5.72;96.49;96337.47;5089643;28;20044;-74
2023/04/26 06:31:27;;;;;;;15.27;9.27;;;;;;;5.77;93.53;96332.00;5088186;28;20040;-75
2023/04/26 06:33:54;;;;;;;29.73;10.43;;;;;;;5.93;93.82;96333.47;5089397;28;20048;-74
2023/04/26 06:36:21;;;;;;;27.85;10.38;;;;;;;5.91;93.45;96335.66;5087848;28;20545;-74
2023/04/26 06:38:47;;;;;;;28.85;9.77;;;;;;;6.06;93.66;96336.59;5082224;28;20136;-74
2023/04/26 06:41:14;;;;;;;30.42;11.02;;;;;;;6.32;93.56;96332.44;5087369;27;20047;-74
2023/04/26 06:43:40;;;;;;;30.52;9.68;;;;;;;6.28;90.67;96336.81;5089441;28;20051;-74
2023/04/26 06:46:07;;;;;;;33.80;9.98;;;;;;;6.38;87.15;96325.88;5089074;28;20105;-74
2023/04/26 06:48:33;;;;;;;33.78;9.63;;;;;;;6.54;87.10;96338.09;5089523;28;20068;-74
2023/04/26 06:51:06;;;;;;;47.92;12.13;;;;;;;6.40;88.29;96331.78;5088048;28;20044;-74
2023/04/26 06:53:34;;;;;;;33.28;9.05;;;;;;;6.46;85.74;96330.63;5085413;28;20047;-74
2023/04/26 06:56:01;;;;;;;36.70;9.95;;;;;;;6.64;84.98;96339.03;5084209;28;20052;-73
2023/04/26 06:58:27;;;;;;;29.33;9.10;;;;;;;6.77;84.40;96338.28;5084956;27;20048;-72
2023/04/26 07:00:54;;;;;;;12.70;6.80;;;;;;;6.80;82.70;96340.44;5086971;28;20410;-72
2023/04/26 07:03:20;;;;;;;17.45;9.32;;;;;;;6.76;81.33;96350.22;5085602;28;20055;-74
2023/04/26 07:05:47;;;;;;;11.15;6.55;;;;;;;6.59;78.98;96350.75;5085339;28;20494;-73
2023/04/26 07:08:14;;;;;;;12.50;7.32;;;;;;;6.54;77.92;96348.91;5087745;27;20125;-74
2023/04/26 07:10:41;;;;;;;10.13;7.32;;;;;;;6.80;78.86;96346.63;5088903;28;20081;-74
2023/04/26 07:13:07;;;;;;;18.00;7.13;;;;;;;6.73;80.21;96350.78;5088206;28;20048;-74
2023/04/26 07:15:35;;;;;;;12.68;7.07;;;;;;;7.09;78.97;96342.94;5088586;28;20040;-72
2023/04/26 07:18:01;;;;;;;15.70;8.18;;;;;;;7.07;79.60;96340.53;5089364;28;20047;-74
2023/04/26 07:20:28;;;;;;;16.83;7.43;;;;;;;7.11;77.25;96348.88;5087651;28;20051;-73
2023/04/26 07:22:54;;;;;;;12.98;6.80;;;;;;;7.31;79.89;96339.59;5089024;28;20046;-74
2023/04/26 07:25:22;;;;;;;13.18;6.43;;;;;;;7.16;72.48;96348.00;5088996;28;20051;-74
2023/04/26 07:27:50;;;;;;;11.20;6.60;;;;;;;7.40;73.23;96343.22;5088506;28;20048;-74
2023/04/26 07:30:16;;;;;;;14.38;7.38;;;;;;;7.73;78.21;96351.34;5091550;28;20036;-75
2023/04/26 07:32:43;;;;;;;14.15;5.32;;;;;;;8.06;73.59;96346.63;5092420;28;20040;-74
2023/04/26 07:35:14;;;;;;;13.02;6.22;;;;;;;8.38;70.79;96348.44;5090369;27;20052;-72
2023/04/26 07:37:41;;;;;;;13.70;5.22;;;;;;;8.57;64.73;96345.59;5092649;28;20056;-74
2023/04/26 07:40:09;;;;;;;10.27;6.00;;;;;;;8.92;68.66;96343.16;5091981;28;20040;-73
2023/04/26 07:42:37;;;;;;;10.98;6.80;;;;;;;9.61;67.66;96349.09;5092385;28;20079;-72
2023/04/26 07:45:04;;;;;;;11.95;5.82;;;;;;;11.33;59.37;96341.59;5091189;28;20542;-72
2023/04/26 07:47:30;;;;;;;12.23;5.90;;;;;;;11.46;58.47;96337.91;5092318;28;20040;-73
2023/04/26 07:49:57;;;;;;;12.07;6.15;;;;;;;10.63;56.68;96347.06;5092562;28;20067;-72
2023/04/26 07:52:23;;;;;;;10.45;5.68;;;;;;;10.76;60.30;96339.06;5091416;28;20040;-73
2023/04/26 07:54:50;;;;;;;8.65;5.93;;;;;;;10.07;60.16;96340.47;5090279;28;20639;-73
2023/04/26 07:57:17;;;;;;;12.63;6.47;;;;;;;9.12;63.37;96348.91;5091832;27;20060;-73
2023/04/26 07:59:44;;;;;;;10.18;6.25;;;;;;;8.96;63.79;96344.97;5090115;28;20047;-73
2023/04/26 08:02:11;;;;;;;10.13;5.32;;;;;;;9.18;62.66;96340.63;5091752;28;20075;-73
2023/04/26 08:04:37;;;;;;;20.90;7.22;;;;;;;9.96;59.36;96339.16;5089834;27;20431;-73
2023/04/26 08:07:04;;;;;;;25.10;6.90;;;;;;;10.24;57.57;96338.97;5088266;27;20048;-73
2023/04/26 08:09:30;;;;;;;24.98;7.65;;;;;;;10.41;61.78;96333.56;5092248;28;20048;-72
2023/04/26 08:11:57;;;;;;;31.88;8.15;;;;;;;10.15;62.72;96344.34;5090911;28;20135;-72
2023/04/26 08:14:24;;;;;;;18.73;6.38;;;;;;;10.49;60.10;96343.66;5089654;27;20044;-74
2023/04/26 08:16:52;;;;;;;12.80;5.95;;;;;;;11.24;56.45;96345.16;5091246;27;20040;-73
2023/04/26 08:19:18;;;;;;;9.18;5.22;;;;;;;12.36;52.03;96334.22;5091159;28;20040;-72
2023/04/26 08:21:45;;;;;;;12.60;5.30;;;;;;;13.09;49.35;96337.44;5091073;27;20044;-72
2023/04/26 08:24:11;;;;;;;9.23;4.85;;;;;;;14.19;47.14;96345.19;5085686;28;20043;-73
2023/04/26 08:26:38;;;;;;;10.40;4.70;;;;;;;13.56;46.66;96339.94;5091473;28;20404;-72
2023/04/26 08:29:05;;;;;;;13.52;5.30;;;;;;;13.31;51.03;96342.59;5091383;28;20066;-73
2023/04/26 08:31:31;;;;;;;9.60;5.05;;;;;;;11.43;51.92;96338.53;5088922;27;20047;-73
2023/04/26 08:33:59;;;;;;;13.48;5.70;;;;;;;11.46;54.39;96335.97;5091807;28;20040;-72
2023/04/26 08:36:26;;;;;;;9.30;5.45;;;;;;;10.93;52.79;96344.53;5090908;28;20040;-73
2023/04/26 08:38:53;;;;;;;9.50;5.20;;;;;;;10.14;54.84;96345.47;5090477;28;20113;-72
2023/04/26 08:41:23;;;;;;;9.20;5.53;;;;;;;10.17;55.90;96334.75;5090025;28;20047;-73
2023/04/26 08:43:51;;;;;;;11.55;6.32;;;;;;;9.88;55.67;96337.22;5091294;28;20468;-73
2023/04/26 08:46:19;;;;;;;10.15;5.20;;;;;;;10.09;57.10;96335.53;5091073;28;20040;-72
2023/04/26 08:48:52;;;;;;;12.38;5.63;;;;;;;9.67;56.01;96339.69;5090168;28;20051;-74
2023/04/26 08:51:21;;;;;;;;;;;;;;;9.23;61.93;96333.16;5090806;27;20044;-73
2023/04/26 08:53:49;;;;;;;11.13;6.28;;;;;;;9.23;60.48;96335.09;5089900;28;19927;-73
2023/04/26 08:56:15;;;;;;;12.45;5.90;;;;;;;10.14;57.14;96329.94;5090632;28;20049;-75
2023/04/26 08:58:42;;;;;;;10.75;6.10;;;;;;;10.78;54.33;96331.38;5088271;28;20048;-75
2023/04/26 09:01:10;;;;;;;10.45;5.45;;;;;;;10.37;55.65;96325.22;5089308;28;20530;-74
2023/04/26 09:03:36;;;;;;;12.30;6.00;;;;;;;10.82;57.60;96326.91;5088518;27;20044;-74
2023/04/26 09:06:03;;;;;;;9.63;5.32;;;;;;;10.74;61.12;96328.47;5090511;27;20070;-73
2023/04/26 09:08:33;;;;;;;17.70;6.68;;;;;;;10.99;54.15;96332.34;5091627;28;20051;-74
2023/04/26 09:10:59;;;;;;;21.65;6.20;;;;;;;10.74;53.44;96338.56;5091606;28;20644;-74
2023/04/26 09:13:28;;;;;;;19.92;6.65;;;;;;;9.95;54.03;96332.13;5091248;28;20048;-74
2023/04/26 09:15:55;;;;;;;12.45;5.72;;;;;;;9.93;55.56;96335.16;5089598;27;20123;-73
2023/04/26 09:18:23;;;;;;;20.88;7.68;;;;;;;9.74;64.77;96322.91;5090618;28;20135;-74
2023/04/26 09:21:03;;;;;;;24.48;7.15;;;;;;;9.59;61.76;96327.63;5091004;28;20074;-74
2023/04/26 09:23:31;;;;;;;23.58;6.90;;;;;;;9.50;59.99;96326.78;5089664;27;20038;-73
2023/04/26 09:26:15;;;;;;;21.38;6.93;;;;;;;9.35;58.85;96325.28;5089512;28;20083;-74
2023/04/26 09:28:42;;;;;;;25.33;6.88;;;;;;;9.99;59.35;96324.13;5090630;28;20097;-73
2023/04/26 09:31:08;;;;;;;10.93;5.43;;;;;;;10.56;56.08;96318.69;5090311;28;20051;-76
2023/04/26 09:33:36;;;;;;;10.95;5.75;;;;;;;10.23;58.13;96321.78;5090088;28;20066;-75
2023/04/26 09:36:12;;;;;;;12.35;6.63;;;;;;;9.84;59.71;96319.91;5088728;27;20494;-74
2023/04/26 09:38:43;;;;;;;13.00;5.85;;;;;;;9.35;57.80;96327.19;5090430;28;20097;-74
2023/04/26 09:41:10;;;;;;;8.63;5.07;;;;;;;9.06;57.26;96328.41;5090025;28;20207;-75
2023/04/26 09:43:37;;;;;;;22.40;6.50;;;;;;;9.35;57.43;96329.91;5090312;28;20050;-75
2023/04/26 09:46:04;;;;;;;19.75;4.85;;;;;;;10.30;52.96;96321.38;5088875;27;20051;-75
2023/04/26 09:48:33;;;;;;;23.63;5.65;;;;;;;10.76;49.99;96317.28;5090179;28;20043;-73
2023/04/26 09:51:09;;;;;;;9.00;4.60;;;;;;;11.15;57.27;96308.13;5088876;28;20086;-74
2023/04/26 09:53:38;;;;;;;19.00;5.75;;;;;;;11.65;50.87;96322.00;5090069;28;20559;-74
2023/04/26 09:56:10;;;;;;;10.05;5.25;;;;;;;11.96;49.97;96315.50;5089799;28;20543;-74
2023/04/26 09:58:38;;;;;;;22.08;5.38;;;;;;;12.06;52.48;96315.13;5089342;27;20518;-73
2023/04/26 10:01:05;;;;;;;40.70;8.18;;;;;;;11.33;48.93;96322.50;5088532;28;20067;-74
2023/04/26 10:03:34;;;;;;;11.35;4.72;;;;;;;10.69;51.14;96324.00;5089585;28;20044;-73
2023/04/26 10:06:01;;;;;;;11.00;4.70;;;;;;;10.33;55.36;96320.72;5089593;28;20036;-73
2023/04/26 10:08:28;;;;;;;11.95;6.20;;;;;;;10.32;58.67;96317.22;5088627;28;20036;-73
2023/04/26 10:10:55;;;;;;;11.27;5.57;;;;;;;10.25;58.53;96322.31;5089324;28;20044;-73
2023/04/26 10:13:23;;;;;;;12.38;6.40;;;;;;;10.17;59.71;96323.06;5089299;28;20422;-73
2023/04/26 10:15:50;;;;;;;9.60;5.70;;;;;;;9.94;60.23;96319.63;5088863;28;20047;-73
2023/04/26 10:18:16;;;;;;;15.02;6.28;;;;;;;9.84;60.44;96322.63;5089348;28;20122;-73
2023/04/26 10:20:46;;;;;;;8.98;5.25;;;;;;;9.63;59.61;96322.38;5089844;28;20047;-73
2023/04/26 10:23:24;;;;;;;11.68;6.20;;;;;;;9.45;61.14;96324.22;5088916;28;20040;-74
2023/04/26 10:25:51;;;;;;;10.40;6.30;;;;;;;9.57;60.71;96327.16;5088502;28;20072;-74
2023/04/26 10:28:18;;;;;;;13.38;5.63;;;;;;;9.68;61.46;96323.03;5089153;28;20047;-73
2023/04/26 10:30:56;;;;;;;17.13;6.20;;;;;;;9.57;62.39;96312.75;5089732;28;20051;-73
2023/04/26 10:33:24;;;;;;;13.25;6.47;;;;;;;9.64;63.50;96316.63;5088041;28;20044;-72
2023/04/26 10:36:06;;;;;;;11.15;5.80;;;;;;;9.88;60.21;96307.28;5088794;28;20061;-73
2023/04/26 10:38:33;;;;;;;26.05;7.57;;;;;;;9.77;60.43;96308.69;5089691;28;20511;-73
2023/04/26 10:41:28;;;;;;;31.48;8.35;;;;;;;9.51;63.02;96312.09;5089367;28;20040;-71
2023/04/26 10:43:54;;;;;;;25.23;7.50;;;;;;;9.27;60.54;96306.19;5088403;28;20073;-75
2023/04/26 10:46:37;;;;;;;10.73;5.60;;;;;;;9.29;60.18;96312.94;5089182;28;20041;-74
2023/04/26 10:49:13;;;;;;;11.93;5.28;;;;;;;9.36;59.62;96304.31;5081349;28;20040;-73
2023/04/26 10:51:40;;;;;;;25.70;6.45;;;;;;;9.59;58.94;96308.59;5089354;28;20512;-72
2023/04/26 10:54:07;;;;;;;21.80;6.40;;;;;;;9.85;59.96;96302.47;5088165;28;20071;-72
2023/04/26 10:56:52;;;;;;;12.05;5.72;;;;;;;9.88;59.16;96299.94;5089249;28;20043;-73
2023/04/26 10:59:22;;;;;;;12.45;5.95;;;;;;;9.75;59.55;96291.88;5088178;28;20093;-74
2023/04/26 11:01:52;;;;;;;10.65;5.15;;;;;;;9.64;57.32;96294.06;5089045;28;20069;-73
2023/04/26 11:04:18;;;;;;;9.60;5.10;;;;;;;9.76;55.60;96297.03;5089400;27;20044;-73
2023/04/26 11:06:49;;;;;;;12.02;5.35;;;;;;;10.04;57.81;96291.34;5093535;28;20040;-72
2023/04/26 11:09:36;;;;;;;9.50;5.78;;;;;;;10.48;61.92;96284.88;5092836;28;20561;-73
2023/04/26 11:12:10;;;;;;;10.40;6.18;;;;;;;10.75;57.49;96283.78;5092136;28;20044;-74
2023/04/26 11:14:37;;;;;;;13.18;5.53;;;;;;;10.36;59.58;96282.00;5092350;28;20100;-74
2023/04/26 11:17:06;;;;;;;9.30;4.90;;;;;;;10.22;57.47;96270.41;5092480;27;20032;-72
2023/04/26 11:19:32;;;;;;;8.05;4.50;;;;;;;9.95;55.53;96277.72;5093876;28;20552;-72
2023/04/26 11:22:00;;;;;;;11.60;5.00;;;;;;;9.88;54.36;96277.38;5092003;28;20040;-72
2023/04/26 11:24:27;;;;;;;7.40;4.43;;;;;;;10.11;60.27;96269.91;5093365;28;20047;-72
2023/04/26 11:26:54;;;;;;;7.57;4.45;;;;;;;10.16;56.88;96273.28;5093696;28;20056;-72
2023/04/26 11:29:21;;;;;;;9.27;4.32;;;;;;;10.88;57.91;96268.41;5094895;28;20036;-72
2023/04/26 11:31:52;;;;;;;11.35;4.53;;;;;;;11.47;60.31;96271.34;5099364;28;20051;-72